Flight Track Log - Related Links

Times and Time Zones

All times are in EDT time to prevent confusion due to time zone crossing. See the SKW6345 flight status page for this flight to view local times or setup timezone preferences in your user account.

Time Position Orientation Groundspeed Altitude Reporting Facility
EDT Latitude Longitude Course Direction KTS MPH feet Rate Location/Type
Sat 08:39:38 PM 33.9167 -118.4667 138° Southeast 179 206 2,700  Level Southern California TRACON
Sat 08:40:38 PM 33.8667 -118.4833 195° South 203 234 4,200 1,667 Climbing Southern California TRACON
Sat 08:41:08 PM 33.8333 -118.4825 179° South 201 231 5,200 1,500 Climbing Los Angeles Center
Sat 08:42:10 PM 33.7758 -118.4803 178° South 208 239 6,500 1,171 Climbing Los Angeles Center
Sat 08:43:11 PM 33.7264 -118.4392 145° Southeast 218 251 7,600 1,073 Climbing Los Angeles Center
Sat 08:44:13 PM 33.6761 -118.3958 144° Southeast 226 260 8,700 677 Climbing Los Angeles Center
Sat 08:45:00 PM 33.6641 -118.1234 138° Southeast  Level Estimated
Sat 08:45:15 PM 33.6356 -118.3336 128° Southeast 242 278 9,000  Level Los Angeles Center
Sat 08:46:17 PM 33.5867 -118.2500 125° Southeast 253 291 9,000  Level Los Angeles Center
Sat 08:47:18 PM 33.5461 -118.1786 124° Southeast 258 297 9,000  Level Los Angeles Center
Sat 08:48:20 PM 33.5064 -118.1064 123° Southeast 260 299 9,000  Level Los Angeles Center
Sat 08:49:22 PM 33.4683 -118.0325 122° Southeast 261 300 9,000  Level Los Angeles Center
Sat 08:50:23 PM 33.4289 -117.9583 122° Southeast 262 302 9,000  Level Los Angeles Center
Sat 08:51:25 PM 33.3897 -117.8861 123° Southeast 262 302 9,000  Level Los Angeles Center
Sat 08:52:27 PM 33.3500 -117.8122 123° Southeast 264 304 9,000 49 Level Los Angeles Center
Sat 08:53:28 PM 33.3019 -117.7258 124° Southeast 262 302 9,100 49 Climbing Los Angeles Center
Sat 08:54:30 PM 33.2714 -117.6675 122° Southeast 261 300 9,100  Level Los Angeles Center
Sat 08:55:32 PM 33.2236 -117.5814 124° Southeast 262 302 9,100  Level Los Angeles Center
Sat 08:56:33 PM 33.1850 -117.5083 122° Southeast 261 300 9,100 -98 Level Los Angeles Center
Sat 08:57:35 PM 33.1439 -117.4372 125° Southeast 262 302 8,900 -444 Descending Los Angeles Center
Sat 08:58:48 PM 33.0750 -117.3972 154° Southeast 272 313 8,100 -871 Descending Los Angeles Center
Sat 08:59:39 PM 32.9833 -117.3500 157° South 281 323 7,100 -649 Descending Southern California TRACON
Sat 09:00:39 PM 32.9167 -117.3000 148° Southeast 266 306 6,900 -100 Descending Southern California TRACON
Sat 09:01:39 PM 32.8667 -117.2500 140° Southeast 258 297 6,900 50 Level Southern California TRACON
Sat 09:02:40 PM 32.8333 -117.1833 121° Southeast 254 292 7,000 -446 Climbing Southern California TRACON
Sat 09:03:40 PM 32.8167 -117.1000 103° East 249 287 6,000 -900 Descending Southern California TRACON
Sat 09:04:40 PM 32.7667 -117.0500 140° Southeast 228 262 5,200 -950 Descending Southern California TRACON
Sat 09:05:40 PM 32.7167 -117.0333 164° South 198 228 4,100 -1,350 Descending Southern California TRACON
Sat 09:06:40 PM 32.7167 -117.0833 270° West 189 217 2,500 -1,650 Descending Southern California TRACON
Sat 09:07:40 PM 32.7167 -117.1500 270° West 155 178 800 -958 Descending Southern California TRACON
Sat 09:09:04 PM 32.7394 -117.2067 296° West 162 186 200 -429 Descending Los Angeles Center

Login

Don't have an account? Register now (free) for customized features, flight alerts, and more!